Pagrindinis puslapis
METAR-TAF:

METAR-TAF

Oro uostai :

Papa, Vengrija

platuma: 47-12N, ilguma: 017-30E, Aukštis: 145 m

Dabartinis oras

Ataskaita buvo paskelbta 36 minutes, ne 23:15 UTC
Ramus vėjas
Temperatūra 3°C
Drėgmė 52%
Slėgis 1032 hPa
Matomumas 10 km arba daugiau
nėra debesų žemiau 1500 m ir nėra kamuolinių lietaus debesų

METAR: LHPA 072315Z 00000KT CAVOK 03/M06 Q1032 NOSIG RMK BLU

Laikas: 01:51 (23:51 UTC)

Prognozė

Ataskaita buvo paskelbta 36 minutes, ne 23:15 UTC
Prognozė galioja nuo 08 metu 00 UTC su 08 metu 24 UTC
Vėjas 6 kt iš Pietryčių
Matomumas 10 km arba daugiau
nėra debesų žemiau 1500 m ir nėra kamuolinių lietaus debesų
Tapsmas
nuo 08 metu 00 UTC su 08 metu 02 UTC
Vėjas 3 kt nuo kintamojo kryptimis
Tapsmas
nuo 08 metu 13 UTC su 08 metu 16 UTC
Vėjas 5 kt iš Pietų

TAF: LHPA 072315Z 0800/0824 14006KT CAVOK BECMG 0800/0802 VRB03KT BECMG 0813/0816 18005KT

Orai ataskaitas ir orų prognozės (METAR, TAF).

turimą stotys yra geltonos ir raudonos taškus žemėlapyje.

Perkelti pele per norėdami pamatyti stoties vardą.

Tada spustelėkite, norėdami matyti oro stebėjimo ir prognozės.

Norėdami pakeisti žemėlapį: spustelėkite ant žalios mygtukų su juodo kryžiaus žemyn,; žalią mygtuką su brūkšneliu, jei norite nutolinti; arba žalių rodyklių gretimoms žemėlapius.


METAR-TAF: